sensor_id;sensor_type;location;lat;lon;timestamp;P1;durP1;ratioP1;P2;durP2;ratioP2
27223;SDS011;14965;50.660;13.226;2023-09-12T00:00:12;20.83;;;14.57;;
27223;SDS011;14965;50.660;13.226;2023-09-12T00:02:38;21.33;;;15.00;;
27223;SDS011;14965;50.660;13.226;2023-09-12T00:05:04;18.25;;;14.05;;
27223;SDS011;14965;50.660;13.226;2023-09-12T00:07:31;21.10;;;13.68;;
27223;SDS011;14965;50.660;13.226;2023-09-12T00:09:57;21.55;;;14.35;;
27223;SDS011;14965;50.660;13.226;2023-09-12T00:12:23;19.50;;;14.00;;
27223;SDS011;14965;50.660;13.226;2023-09-12T00:14:51;20.48;;;13.77;;
27223;SDS011;14965;50.660;13.226;2023-09-12T00:17:17;20.48;;;14.57;;
27223;SDS011;14965;50.660;13.226;2023-09-12T00:19:43;21.90;;;14.20;;
27223;SDS011;14965;50.660;13.226;2023-09-12T00:22:09;22.08;;;14.65;;
27223;SDS011;14965;50.660;13.226;2023-09-12T00:24:35;20.08;;;14.05;;
27223;SDS011;14965;50.660;13.226;2023-09-12T00:27:01;21.75;;;14.32;;
27223;SDS011;14965;50.660;13.226;2023-09-12T00:29:27;19.73;;;13.63;;
27223;SDS011;14965;50.660;13.226;2023-09-12T00:31:54;21.88;;;13.88;;
27223;SDS011;14965;50.660;13.226;2023-09-12T00:34:20;20.25;;;14.18;;
27223;SDS011;14965;50.660;13.226;2023-09-12T00:36:46;20.48;;;13.93;;
27223;SDS011;14965;50.660;13.226;2023-09-12T00:39:12;21.67;;;15.02;;
27223;SDS011;14965;50.660;13.226;2023-09-12T00:41:38;17.60;;;13.45;;
27223;SDS011;14965;50.660;13.226;2023-09-12T00:44:04;22.77;;;14.70;;
27223;SDS011;14965;50.660;13.226;2023-09-12T00:46:31;22.80;;;14.02;;
27223;SDS011;14965;50.660;13.226;2023-09-12T00:48:59;18.85;;;13.73;;
27223;SDS011;14965;50.660;13.226;2023-09-12T00:51:28;22.00;;;13.48;;
27223;SDS011;14965;50.660;13.226;2023-09-12T00:53:56;19.27;;;13.82;;
27223;SDS011;14965;50.660;13.226;2023-09-12T00:56:22;20.13;;;13.48;;
27223;SDS011;14965;50.660;13.226;2023-09-12T00:58:48;20.13;;;13.50;;
27223;SDS011;14965;50.660;13.226;2023-09-12T01:01:14;17.48;;;13.85;;
27223;SDS011;14965;50.660;13.226;2023-09-12T01:03:40;20.20;;;14.18;;
27223;SDS011;14965;50.660;13.226;2023-09-12T01:06:07;22.88;;;13.77;;
27223;SDS011;14965;50.660;13.226;2023-09-12T01:08:34;19.27;;;13.77;;
27223;SDS011;14965;50.660;13.226;2023-09-12T01:11:01;19.08;;;13.65;;
27223;SDS011;14965;50.660;13.226;2023-09-12T01:13:27;20.77;;;13.63;;
27223;SDS011;14965;50.660;13.226;2023-09-12T01:15:54;19.52;;;13.55;;
27223;SDS011;14965;50.660;13.226;2023-09-12T01:18:20;19.15;;;13.05;;
27223;SDS011;14965;50.660;13.226;2023-09-12T01:20:48;19.20;;;13.55;;
27223;SDS011;14965;50.660;13.226;2023-09-12T01:23:44;16.60;;;13.40;;
27223;SDS011;14965;50.660;13.226;2023-09-12T01:26:30;23.00;;;13.77;;
27223;SDS011;14965;50.660;13.226;2023-09-12T01:29:15;21.92;;;13.65;;
27223;SDS011;14965;50.660;13.226;2023-09-12T01:31:43;20.05;;;14.02;;
27223;SDS011;14965;50.660;13.226;2023-09-12T01:34:11;19.65;;;12.93;;
27223;SDS011;14965;50.660;13.226;2023-09-12T01:36:37;19.20;;;12.85;;
27223;SDS011;14965;50.660;13.226;2023-09-12T01:39:03;23.67;;;13.38;;
27223;SDS011;14965;50.660;13.226;2023-09-12T01:41:30;23.60;;;13.40;;
27223;SDS011;14965;50.660;13.226;2023-09-12T01:44:02;24.20;;;13.98;;
27223;SDS011;14965;50.660;13.226;2023-09-12T01:46:32;24.73;;;13.85;;
27223;SDS011;14965;50.660;13.226;2023-09-12T01:49:02;24.83;;;13.75;;
27223;SDS011;14965;50.660;13.226;2023-09-12T01:51:32;19.67;;;13.63;;
27223;SDS011;14965;50.660;13.226;2023-09-12T01:53:59;26.25;;;13.95;;
27223;SDS011;14965;50.660;13.226;2023-09-12T01:56:28;24.17;;;14.00;;
27223;SDS011;14965;50.660;13.226;2023-09-12T01:58:55;28.00;;;14.70;;
27223;SDS011;14965;50.660;13.226;2023-09-12T02:04:05;24.38;;;13.98;;
27223;SDS011;14965;50.660;13.226;2023-09-12T02:06:31;23.38;;;14.05;;
27223;SDS011;14965;50.660;13.226;2023-09-12T02:08:57;20.05;;;13.00;;
27223;SDS011;14965;50.660;13.226;2023-09-12T02:11:23;23.90;;;14.10;;
27223;SDS011;14965;50.660;13.226;2023-09-12T02:13:51;20.27;;;13.50;;
27223;SDS011;14965;50.660;13.226;2023-09-12T02:16:17;22.25;;;12.93;;
27223;SDS011;14965;50.660;13.226;2023-09-12T02:18:43;23.02;;;13.00;;
27223;SDS011;14965;50.660;13.226;2023-09-12T02:21:10;20.45;;;13.00;;
27223;SDS011;14965;50.660;13.226;2023-09-12T02:23:36;20.35;;;13.05;;
27223;SDS011;14965;50.660;13.226;2023-09-12T02:26:02;26.33;;;13.20;;
27223;SDS011;14965;50.660;13.226;2023-09-12T02:28:28;20.67;;;13.10;;
27223;SDS011;14965;50.660;13.226;2023-09-12T02:30:54;21.60;;;12.80;;
27223;SDS011;14965;50.660;13.226;2023-09-12T02:33:20;20.35;;;13.00;;
27223;SDS011;14965;50.660;13.226;2023-09-12T02:35:46;22.58;;;13.57;;
27223;SDS011;14965;50.660;13.226;2023-09-12T02:38:13;25.00;;;13.35;;
27223;SDS011;14965;50.660;13.226;2023-09-12T02:40:39;22.27;;;13.25;;
27223;SDS011;14965;50.660;13.226;2023-09-12T02:43:05;18.88;;;12.57;;
27223;SDS011;14965;50.660;13.226;2023-09-12T02:45:31;21.95;;;12.65;;
27223;SDS011;14965;50.660;13.226;2023-09-12T02:47:57;22.23;;;13.48;;
27223;SDS011;14965;50.660;13.226;2023-09-12T02:50:23;22.98;;;13.80;;
27223;SDS011;14965;50.660;13.226;2023-09-12T02:52:49;21.77;;;13.68;;
27223;SDS011;14965;50.660;13.226;2023-09-12T02:55:16;18.33;;;12.40;;
27223;SDS011;14965;50.660;13.226;2023-09-12T02:57:42;21.00;;;12.65;;
27223;SDS011;14965;50.660;13.226;2023-09-12T03:00:08;22.08;;;13.00;;
27223;SDS011;14965;50.660;13.226;2023-09-12T03:02:35;20.50;;;12.20;;
27223;SDS011;14965;50.660;13.226;2023-09-12T03:05:01;19.50;;;12.48;;
27223;SDS011;14965;50.660;13.226;2023-09-12T03:07:29;18.17;;;11.98;;
27223;SDS011;14965;50.660;13.226;2023-09-12T03:09:55;18.95;;;12.95;;
27223;SDS011;14965;50.660;13.226;2023-09-12T03:12:22;20.15;;;13.60;;
27223;SDS011;14965;50.660;13.226;2023-09-12T03:14:48;19.73;;;13.75;;
27223;SDS011;14965;50.660;13.226;2023-09-12T03:17:14;22.65;;;12.73;;
27223;SDS011;14965;50.660;13.226;2023-09-12T03:19:40;16.50;;;11.40;;
27223;SDS011;14965;50.660;13.226;2023-09-12T03:22:06;24.67;;;12.15;;
27223;SDS011;14965;50.660;13.226;2023-09-12T03:24:32;22.48;;;12.02;;
27223;SDS011;14965;50.660;13.226;2023-09-12T03:26:57;22.13;;;12.02;;
27223;SDS011;14965;50.660;13.226;2023-09-12T03:29:25;19.85;;;12.07;;
27223;SDS011;14965;50.660;13.226;2023-09-12T03:31:51;19.85;;;11.63;;
27223;SDS011;14965;50.660;13.226;2023-09-12T03:34:17;19.65;;;11.75;;
27223;SDS011;14965;50.660;13.226;2023-09-12T03:36:42;21.17;;;11.38;;
27223;SDS011;14965;50.660;13.226;2023-09-12T03:39:08;19.20;;;12.02;;
27223;SDS011;14965;50.660;13.226;2023-09-12T03:41:34;20.60;;;12.05;;
27223;SDS011;14965;50.660;13.226;2023-09-12T03:44:00;20.42;;;12.30;;
27223;SDS011;14965;50.660;13.226;2023-09-12T03:46:28;18.85;;;11.68;;
27223;SDS011;14965;50.660;13.226;2023-09-12T03:48:53;20.73;;;12.20;;
27223;SDS011;14965;50.660;13.226;2023-09-12T03:51:19;19.85;;;12.05;;
27223;SDS011;14965;50.660;13.226;2023-09-12T03:53:45;17.60;;;11.52;;
27223;SDS011;14965;50.660;13.226;2023-09-12T03:56:11;17.48;;;11.10;;
27223;SDS011;14965;50.660;13.226;2023-09-12T03:58:37;20.33;;;11.65;;
27223;SDS011;14965;50.660;13.226;2023-09-12T04:01:03;20.02;;;10.93;;
27223;SDS011;14965;50.660;13.226;2023-09-12T04:03:31;21.00;;;11.82;;
27223;SDS011;14965;50.660;13.226;2023-09-12T04:05:56;18.05;;;11.27;;
27223;SDS011;14965;50.660;13.226;2023-09-12T04:08:22;20.58;;;12.05;;
27223;SDS011;14965;50.660;13.226;2023-09-12T04:10:48;20.00;;;12.02;;
27223;SDS011;14965;50.660;13.226;2023-09-12T04:13:14;20.17;;;11.88;;
27223;SDS011;14965;50.660;13.226;2023-09-12T04:15:40;22.98;;;12.13;;
27223;SDS011;14965;50.660;13.226;2023-09-12T04:18:06;19.60;;;11.48;;
27223;SDS011;14965;50.660;13.226;2023-09-12T04:20:33;17.25;;;11.43;;
27223;SDS011;14965;50.660;13.226;2023-09-12T04:23:00;21.08;;;11.73;;
27223;SDS011;14965;50.660;13.226;2023-09-12T04:25:26;18.85;;;11.88;;
27223;SDS011;14965;50.660;13.226;2023-09-12T04:27:52;21.42;;;11.88;;
27223;SDS011;14965;50.660;13.226;2023-09-12T04:30:18;18.95;;;11.38;;
27223;SDS011;14965;50.660;13.226;2023-09-12T04:32:44;19.52;;;11.65;;
27223;SDS011;14965;50.660;13.226;2023-09-12T04:35:10;21.45;;;12.15;;
27223;SDS011;14965;50.660;13.226;2023-09-12T04:37:37;22.13;;;11.57;;
27223;SDS011;14965;50.660;13.226;2023-09-12T04:40:04;23.63;;;11.57;;
27223;SDS011;14965;50.660;13.226;2023-09-12T04:42:32;18.40;;;11.65;;
27223;SDS011;14965;50.660;13.226;2023-09-12T04:44:58;16.13;;;10.85;;
27223;SDS011;14965;50.660;13.226;2023-09-12T04:47:24;16.75;;;11.27;;
27223;SDS011;14965;50.660;13.226;2023-09-12T04:49:50;17.90;;;10.60;;
27223;SDS011;14965;50.660;13.226;2023-09-12T04:52:17;18.02;;;10.95;;
27223;SDS011;14965;50.660;13.226;2023-09-12T04:54:44;22.13;;;11.50;;
27223;SDS011;14965;50.660;13.226;2023-09-12T04:57:10;16.45;;;10.85;;
27223;SDS011;14965;50.660;13.226;2023-09-12T04:59:36;19.70;;;12.23;;
27223;SDS011;14965;50.660;13.226;2023-09-12T05:02:02;18.05;;;11.23;;
27223;SDS011;14965;50.660;13.226;2023-09-12T05:04:28;19.30;;;10.75;;
27223;SDS011;14965;50.660;13.226;2023-09-12T05:06:54;19.80;;;11.98;;
27223;SDS011;14965;50.660;13.226;2023-09-12T05:09:20;19.35;;;11.30;;
27223;SDS011;14965;50.660;13.226;2023-09-12T05:11:48;19.05;;;11.40;;
27223;SDS011;14965;50.660;13.226;2023-09-12T05:14:14;17.27;;;11.50;;
27223;SDS011;14965;50.660;13.226;2023-09-12T05:16:40;16.38;;;11.15;;
27223;SDS011;14965;50.660;13.226;2023-09-12T05:19:06;18.98;;;11.13;;
27223;SDS011;14965;50.660;13.226;2023-09-12T05:21:31;17.48;;;11.73;;
27223;SDS011;14965;50.660;13.226;2023-09-12T05:23:57;20.75;;;11.38;;
27223;SDS011;14965;50.660;13.226;2023-09-12T05:26:23;20.38;;;11.27;;
27223;SDS011;14965;50.660;13.226;2023-09-12T05:28:51;19.02;;;11.02;;
27223;SDS011;14965;50.660;13.226;2023-09-12T05:31:17;20.17;;;10.90;;
27223;SDS011;14965;50.660;13.226;2023-09-12T05:33:42;18.75;;;11.25;;
27223;SDS011;14965;50.660;13.226;2023-09-12T05:36:08;20.73;;;10.23;;
27223;SDS011;14965;50.660;13.226;2023-09-12T05:38:34;17.55;;;10.50;;
27223;SDS011;14965;50.660;13.226;2023-09-12T05:41:00;19.58;;;10.63;;
27223;SDS011;14965;50.660;13.226;2023-09-12T05:43:26;17.42;;;11.07;;
27223;SDS011;14965;50.660;13.226;2023-09-12T05:45:54;17.40;;;11.45;;
27223;SDS011;14965;50.660;13.226;2023-09-12T05:48:20;18.17;;;10.27;;
27223;SDS011;14965;50.660;13.226;2023-09-12T05:50:46;19.10;;;9.95;;
27223;SDS011;14965;50.660;13.226;2023-09-12T05:53:12;14.63;;;10.35;;
27223;SDS011;14965;50.660;13.226;2023-09-12T05:55:38;18.10;;;10.05;;
27223;SDS011;14965;50.660;13.226;2023-09-12T05:58:04;18.02;;;10.25;;
27223;SDS011;14965;50.660;13.226;2023-09-12T06:00:30;16.08;;;10.00;;
27223;SDS011;14965;50.660;13.226;2023-09-12T06:02:57;15.20;;;10.02;;
27223;SDS011;14965;50.660;13.226;2023-09-12T06:05:23;19.13;;;10.65;;
27223;SDS011;14965;50.660;13.226;2023-09-12T06:07:49;17.48;;;9.95;;
27223;SDS011;14965;50.660;13.226;2023-09-12T06:10:15;18.33;;;9.73;;
27223;SDS011;14965;50.660;13.226;2023-09-12T06:12:41;19.33;;;10.55;;
27223;SDS011;14965;50.660;13.226;2023-09-12T06:15:07;14.73;;;9.63;;
27223;SDS011;14965;50.660;13.226;2023-09-12T06:17:34;17.33;;;9.88;;
27223;SDS011;14965;50.660;13.226;2023-09-12T06:20:01;19.80;;;9.85;;
27223;SDS011;14965;50.660;13.226;2023-09-12T06:22:28;19.45;;;10.05;;
27223;SDS011;14965;50.660;13.226;2023-09-12T06:24:54;18.05;;;10.10;;
27223;SDS011;14965;50.660;13.226;2023-09-12T06:27:19;16.30;;;9.57;;
27223;SDS011;14965;50.660;13.226;2023-09-12T06:29:45;15.73;;;9.77;;
27223;SDS011;14965;50.660;13.226;2023-09-12T06:32:12;14.98;;;9.13;;
27223;SDS011;14965;50.660;13.226;2023-09-12T06:34:38;15.02;;;9.45;;
27223;SDS011;14965;50.660;13.226;2023-09-12T06:37:05;15.32;;;9.05;;
27223;SDS011;14965;50.660;13.226;2023-09-12T06:39:31;19.25;;;9.10;;
27223;SDS011;14965;50.660;13.226;2023-09-12T06:41:57;17.10;;;9.00;;
27223;SDS011;14965;50.660;13.226;2023-09-12T06:44:23;17.92;;;9.65;;
27223;SDS011;14965;50.660;13.226;2023-09-12T06:46:49;16.15;;;9.02;;
27223;SDS011;14965;50.660;13.226;2023-09-12T06:49:14;15.95;;;9.27;;
27223;SDS011;14965;50.660;13.226;2023-09-12T06:51:41;14.32;;;8.85;;
27223;SDS011;14965;50.660;13.226;2023-09-12T06:54:08;16.60;;;9.77;;
27223;SDS011;14965;50.660;13.226;2023-09-12T06:56:34;15.65;;;8.85;;
27223;SDS011;14965;50.660;13.226;2023-09-12T06:59:00;14.75;;;8.82;;
27223;SDS011;14965;50.660;13.226;2023-09-12T07:01:26;16.58;;;8.60;;
27223;SDS011;14965;50.660;13.226;2023-09-12T07:03:52;15.52;;;9.02;;
27223;SDS011;14965;50.660;13.226;2023-09-12T07:06:17;17.85;;;8.60;;
27223;SDS011;14965;50.660;13.226;2023-09-12T07:08:43;14.38;;;8.57;;
27223;SDS011;14965;50.660;13.226;2023-09-12T07:11:11;13.30;;;8.20;;
27223;SDS011;14965;50.660;13.226;2023-09-12T07:13:37;15.95;;;8.02;;
27223;SDS011;14965;50.660;13.226;2023-09-12T07:16:03;13.80;;;8.40;;
27223;SDS011;14965;50.660;13.226;2023-09-12T07:18:29;15.32;;;8.40;;
27223;SDS011;14965;50.660;13.226;2023-09-12T07:20:58;16.65;;;8.55;;
27223;SDS011;14965;50.660;13.226;2023-09-12T07:23:26;13.77;;;8.38;;
27223;SDS011;14965;50.660;13.226;2023-09-12T07:25:52;16.40;;;8.57;;
27223;SDS011;14965;50.660;13.226;2023-09-12T07:28:21;12.23;;;7.85;;
27223;SDS011;14965;50.660;13.226;2023-09-12T07:30:47;13.32;;;7.78;;
27223;SDS011;14965;50.660;13.226;2023-09-12T07:33:13;12.77;;;7.90;;
27223;SDS011;14965;50.660;13.226;2023-09-12T07:35:39;12.68;;;7.93;;
27223;SDS011;14965;50.660;13.226;2023-09-12T07:38:05;15.55;;;7.97;;
27223;SDS011;14965;50.660;13.226;2023-09-12T07:40:31;13.25;;;8.50;;
27223;SDS011;14965;50.660;13.226;2023-09-12T07:42:57;15.98;;;8.68;;
27223;SDS011;14965;50.660;13.226;2023-09-12T07:45:24;16.05;;;8.05;;
27223;SDS011;14965;50.660;13.226;2023-09-12T07:47:50;17.58;;;8.27;;
27223;SDS011;14965;50.660;13.226;2023-09-12T07:50:16;14.95;;;7.90;;
27223;SDS011;14965;50.660;13.226;2023-09-12T07:52:42;16.45;;;8.20;;
27223;SDS011;14965;50.660;13.226;2023-09-12T07:55:08;10.90;;;7.55;;
27223;SDS011;14965;50.660;13.226;2023-09-12T07:57:34;18.23;;;7.97;;
27223;SDS011;14965;50.660;13.226;2023-09-12T08:00:00;13.13;;;7.72;;
27223;SDS011;14965;50.660;13.226;2023-09-12T08:02:28;11.43;;;7.25;;
27223;SDS011;14965;50.660;13.226;2023-09-12T08:04:54;13.85;;;6.68;;
27223;SDS011;14965;50.660;13.226;2023-09-12T08:07:20;16.33;;;6.38;;
27223;SDS011;14965;50.660;13.226;2023-09-12T08:09:50;11.18;;;5.75;;
27223;SDS011;14965;50.660;13.226;2023-09-12T08:12:17;17.70;;;6.05;;
27223;SDS011;14965;50.660;13.226;2023-09-12T08:14:45;15.55;;;5.50;;
27223;SDS011;14965;50.660;13.226;2023-09-12T08:17:11;17.67;;;6.03;;
27223;SDS011;14965;50.660;13.226;2023-09-12T08:19:39;16.08;;;5.90;;
27223;SDS011;14965;50.660;13.226;2023-09-12T08:22:06;11.93;;;6.03;;
27223;SDS011;14965;50.660;13.226;2023-09-12T08:24:33;13.43;;;6.38;;
27223;SDS011;14965;50.660;13.226;2023-09-12T08:26:59;11.23;;;6.03;;
27223;SDS011;14965;50.660;13.226;2023-09-12T08:29:25;15.15;;;7.22;;
27223;SDS011;14965;50.660;13.226;2023-09-12T08:31:53;16.05;;;7.15;;
27223;SDS011;14965;50.660;13.226;2023-09-12T08:34:19;14.07;;;7.50;;
27223;SDS011;14965;50.660;13.226;2023-09-12T08:36:47;16.50;;;6.80;;
27223;SDS011;14965;50.660;13.226;2023-09-12T08:39:14;16.88;;;6.75;;
27223;SDS011;14965;50.660;13.226;2023-09-12T08:41:41;15.73;;;6.73;;
27223;SDS011;14965;50.660;13.226;2023-09-12T08:44:07;17.35;;;6.68;;
27223;SDS011;14965;50.660;13.226;2023-09-12T08:46:34;16.23;;;6.47;;
27223;SDS011;14965;50.660;13.226;2023-09-12T08:49:00;14.68;;;6.60;;
27223;SDS011;14965;50.660;13.226;2023-09-12T08:51:27;13.88;;;6.88;;
27223;SDS011;14965;50.660;13.226;2023-09-12T08:53:54;14.45;;;7.00;;
27223;SDS011;14965;50.660;13.226;2023-09-12T08:56:20;15.82;;;7.28;;
27223;SDS011;14965;50.660;13.226;2023-09-12T08:58:46;12.88;;;7.00;;
27223;SDS011;14965;50.660;13.226;2023-09-12T09:01:13;13.57;;;7.15;;
27223;SDS011;14965;50.660;13.226;2023-09-12T09:03:43;15.77;;;7.68;;
27223;SDS011;14965;50.660;13.226;2023-09-12T09:06:11;19.40;;;7.57;;
27223;SDS011;14965;50.660;13.226;2023-09-12T09:08:40;18.08;;;6.78;;
27223;SDS011;14965;50.660;13.226;2023-09-12T09:11:09;17.40;;;6.53;;
27223;SDS011;14965;50.660;13.226;2023-09-12T09:13:35;16.58;;;6.45;;
27223;SDS011;14965;50.660;13.226;2023-09-12T09:16:11;20.95;;;7.80;;
27223;SDS011;14965;50.660;13.226;2023-09-12T09:21:24;13.48;;;6.93;;
27223;SDS011;14965;50.660;13.226;2023-09-12T09:23:53;15.48;;;7.57;;
27223;SDS011;14965;50.660;13.226;2023-09-12T09:26:21;17.65;;;7.57;;
27223;SDS011;14965;50.660;13.226;2023-09-12T09:29:01;11.80;;;6.75;;
27223;SDS011;14965;50.660;13.226;2023-09-12T09:31:29;17.67;;;8.45;;
27223;SDS011;14965;50.660;13.226;2023-09-12T09:33:55;22.00;;;7.95;;
27223;SDS011;14965;50.660;13.226;2023-09-12T09:36:23;17.92;;;7.88;;
27223;SDS011;14965;50.660;13.226;2023-09-12T09:38:49;15.25;;;7.88;;
27223;SDS011;14965;50.660;13.226;2023-09-12T09:41:15;19.80;;;7.45;;
27223;SDS011;14965;50.660;13.226;2023-09-12T09:43:46;17.67;;;7.50;;
27223;SDS011;14965;50.660;13.226;2023-09-12T09:46:14;16.25;;;7.75;;
27223;SDS011;14965;50.660;13.226;2023-09-12T09:48:41;19.73;;;8.13;;
27223;SDS011;14965;50.660;13.226;2023-09-12T09:51:14;17.02;;;7.95;;
27223;SDS011;14965;50.660;13.226;2023-09-12T09:53:41;17.83;;;8.25;;
27223;SDS011;14965;50.660;13.226;2023-09-12T09:56:07;14.23;;;7.20;;
27223;SDS011;14965;50.660;13.226;2023-09-12T09:58:34;12.80;;;7.25;;
27223;SDS011;14965;50.660;13.226;2023-09-12T10:01:03;16.67;;;8.10;;
27223;SDS011;14965;50.660;13.226;2023-09-12T10:03:32;17.67;;;7.95;;
27223;SDS011;14965;50.660;13.226;2023-09-12T10:06:02;16.88;;;8.50;;
27223;SDS011;14965;50.660;13.226;2023-09-12T10:08:31;17.40;;;8.25;;
27223;SDS011;14965;50.660;13.226;2023-09-12T10:11:01;15.98;;;8.07;;
27223;SDS011;14965;50.660;13.226;2023-09-12T10:13:28;18.73;;;8.50;;
27223;SDS011;14965;50.660;13.226;2023-09-12T10:15:57;15.02;;;8.00;;
27223;SDS011;14965;50.660;13.226;2023-09-12T10:18:27;15.80;;;8.10;;
27223;SDS011;14965;50.660;13.226;2023-09-12T10:21:02;21.55;;;8.48;;
27223;SDS011;14965;50.660;13.226;2023-09-12T10:23:37;19.02;;;8.10;;
27223;SDS011;14965;50.660;13.226;2023-09-12T10:26:09;16.38;;;8.07;;
27223;SDS011;14965;50.660;13.226;2023-09-12T10:28:38;20.67;;;7.30;;
27223;SDS011;14965;50.660;13.226;2023-09-12T10:31:06;17.13;;;8.23;;
27223;SDS011;14965;50.660;13.226;2023-09-12T10:33:37;17.92;;;8.10;;
27223;SDS011;14965;50.660;13.226;2023-09-12T10:36:04;18.73;;;7.78;;
27223;SDS011;14965;50.660;13.226;2023-09-12T10:38:33;15.23;;;8.00;;
27223;SDS011;14965;50.660;13.226;2023-09-12T10:41:06;14.48;;;7.43;;
27223;SDS011;14965;50.660;13.226;2023-09-12T10:43:36;18.33;;;7.93;;
27223;SDS011;14965;50.660;13.226;2023-09-12T10:46:04;19.65;;;7.97;;
27223;SDS011;14965;50.660;13.226;2023-09-12T10:48:30;15.75;;;7.35;;
27223;SDS011;14965;50.660;13.226;2023-09-12T10:51:01;19.27;;;7.82;;
27223;SDS011;14965;50.660;13.226;2023-09-12T10:53:28;17.65;;;8.00;;
27223;SDS011;14965;50.660;13.226;2023-09-12T10:55:58;17.20;;;8.13;;
27223;SDS011;14965;50.660;13.226;2023-09-12T10:58:25;16.92;;;7.88;;
27223;SDS011;14965;50.660;13.226;2023-09-12T11:03:47;17.05;;;8.15;;
27223;SDS011;14965;50.660;13.226;2023-09-12T11:06:21;18.38;;;7.60;;
27223;SDS011;14965;50.660;13.226;2023-09-12T11:11:47;16.42;;;7.80;;
27223;SDS011;14965;50.660;13.226;2023-09-12T11:14:14;20.40;;;7.80;;
27223;SDS011;14965;50.660;13.226;2023-09-12T11:16:41;18.98;;;7.97;;
27223;SDS011;14965;50.660;13.226;2023-09-12T11:19:14;18.13;;;8.18;;
27223;SDS011;14965;50.660;13.226;2023-09-12T11:21:44;14.77;;;7.85;;
27223;SDS011;14965;50.660;13.226;2023-09-12T11:24:11;17.10;;;8.35;;
27223;SDS011;14965;50.660;13.226;2023-09-12T11:26:54;16.92;;;7.80;;
27223;SDS011;14965;50.660;13.226;2023-09-12T11:29:22;18.25;;;8.30;;
27223;SDS011;14965;50.660;13.226;2023-09-12T11:31:53;20.60;;;8.13;;
27223;SDS011;14965;50.660;13.226;2023-09-12T11:34:20;16.63;;;8.25;;
27223;SDS011;14965;50.660;13.226;2023-09-12T11:36:47;15.30;;;8.20;;
27223;SDS011;14965;50.660;13.226;2023-09-12T11:39:23;17.42;;;8.27;;
27223;SDS011;14965;50.660;13.226;2023-09-12T11:41:49;23.95;;;7.97;;
27223;SDS011;14965;50.660;13.226;2023-09-12T11:44:16;14.50;;;8.25;;
27223;SDS011;14965;50.660;13.226;2023-09-12T11:46:44;18.15;;;8.82;;
27223;SDS011;14965;50.660;13.226;2023-09-12T11:49:14;18.60;;;8.90;;
27223;SDS011;14965;50.660;13.226;2023-09-12T11:51:45;16.75;;;8.88;;
27223;SDS011;14965;50.660;13.226;2023-09-12T11:54:15;17.10;;;8.27;;
27223;SDS011;14965;50.660;13.226;2023-09-12T11:56:43;14.75;;;8.05;;
27223;SDS011;14965;50.660;13.226;2023-09-12T11:59:11;22.27;;;8.82;;
27223;SDS011;14965;50.660;13.226;2023-09-12T12:01:37;22.70;;;9.02;;
27223;SDS011;14965;50.660;13.226;2023-09-12T12:04:03;13.60;;;8.25;;
27223;SDS011;14965;50.660;13.226;2023-09-12T12:06:32;14.48;;;8.20;;
27223;SDS011;14965;50.660;13.226;2023-09-12T12:09:00;15.88;;;8.05;;
27223;SDS011;14965;50.660;13.226;2023-09-12T12:11:30;15.20;;;8.55;;
27223;SDS011;14965;50.660;13.226;2023-09-12T12:13:57;13.65;;;8.70;;
27223;SDS011;14965;50.660;13.226;2023-09-12T12:16:34;18.13;;;8.80;;
27223;SDS011;14965;50.660;13.226;2023-09-12T12:19:01;15.30;;;8.60;;
27223;SDS011;14965;50.660;13.226;2023-09-12T12:21:27;16.48;;;7.70;;
27223;SDS011;14965;50.660;13.226;2023-09-12T12:24:01;15.70;;;8.88;;
27223;SDS011;14965;50.660;13.226;2023-09-12T12:26:29;11.35;;;8.52;;
27223;SDS011;14965;50.660;13.226;2023-09-12T12:28:55;15.90;;;9.18;;
27223;SDS011;14965;50.660;13.226;2023-09-12T12:31:23;17.33;;;9.03;;
27223;SDS011;14965;50.660;13.226;2023-09-12T12:33:49;15.45;;;8.27;;
27223;SDS011;14965;50.660;13.226;2023-09-12T12:36:15;15.82;;;8.30;;
27223;SDS011;14965;50.660;13.226;2023-09-12T12:38:41;18.70;;;9.00;;
27223;SDS011;14965;50.660;13.226;2023-09-12T12:41:12;20.65;;;9.57;;
27223;SDS011;14965;50.660;13.226;2023-09-12T12:43:39;17.55;;;8.93;;
27223;SDS011;14965;50.660;13.226;2023-09-12T12:46:09;12.70;;;9.00;;
27223;SDS011;14965;50.660;13.226;2023-09-12T12:48:37;17.02;;;9.05;;
27223;SDS011;14965;50.660;13.226;2023-09-12T12:51:14;16.27;;;8.70;;
27223;SDS011;14965;50.660;13.226;2023-09-12T12:53:42;15.35;;;9.15;;
27223;SDS011;14965;50.660;13.226;2023-09-12T12:56:14;19.27;;;9.48;;
27223;SDS011;14965;50.660;13.226;2023-09-12T12:58:46;21.00;;;9.18;;
27223;SDS011;14965;50.660;13.226;2023-09-12T13:01:14;18.38;;;9.70;;
27223;SDS011;14965;50.660;13.226;2023-09-12T13:03:41;15.80;;;9.32;;
27223;SDS011;14965;50.660;13.226;2023-09-12T13:06:07;15.65;;;10.00;;
27223;SDS011;14965;50.660;13.226;2023-09-12T13:08:33;18.67;;;9.35;;
27223;SDS011;14965;50.660;13.226;2023-09-12T13:10:59;18.38;;;9.55;;
27223;SDS011;14965;50.660;13.226;2023-09-12T13:13:27;15.25;;;9.32;;
27223;SDS011;14965;50.660;13.226;2023-09-12T13:15:53;17.30;;;9.35;;
27223;SDS011;14965;50.660;13.226;2023-09-12T13:18:19;13.88;;;9.80;;
27223;SDS011;14965;50.660;13.226;2023-09-12T13:20:45;16.60;;;10.20;;
27223;SDS011;14965;50.660;13.226;2023-09-12T13:23:11;17.25;;;9.65;;
27223;SDS011;14965;50.660;13.226;2023-09-12T13:25:37;25.80;;;9.65;;
27223;SDS011;14965;50.660;13.226;2023-09-12T13:28:03;16.10;;;9.45;;
27223;SDS011;14965;50.660;13.226;2023-09-12T13:30:31;19.10;;;9.38;;
27223;SDS011;14965;50.660;13.226;2023-09-12T13:32:57;17.65;;;10.07;;
27223;SDS011;14965;50.660;13.226;2023-09-12T13:35:23;21.08;;;9.90;;
27223;SDS011;14965;50.660;13.226;2023-09-12T13:37:49;17.08;;;9.38;;
27223;SDS011;14965;50.660;13.226;2023-09-12T13:40:15;17.75;;;9.85;;
27223;SDS011;14965;50.660;13.226;2023-09-12T13:42:41;18.38;;;9.50;;
27223;SDS011;14965;50.660;13.226;2023-09-12T13:45:07;15.00;;;9.30;;
27223;SDS011;14965;50.660;13.226;2023-09-12T13:47:37;13.43;;;9.45;;
27223;SDS011;14965;50.660;13.226;2023-09-12T13:50:03;18.90;;;9.52;;
27223;SDS011;14965;50.660;13.226;2023-09-12T13:52:30;18.83;;;10.25;;
27223;SDS011;14965;50.660;13.226;2023-09-12T13:54:56;17.42;;;10.23;;
27223;SDS011;14965;50.660;13.226;2023-09-12T13:57:22;20.77;;;10.10;;
27223;SDS011;14965;50.660;13.226;2023-09-12T13:59:48;19.75;;;10.38;;
27223;SDS011;14965;50.660;13.226;2023-09-12T14:05:06;13.93;;;9.38;;
27223;SDS011;14965;50.660;13.226;2023-09-12T14:07:33;16.58;;;9.75;;
27223;SDS011;14965;50.660;13.226;2023-09-12T14:09:59;17.17;;;9.20;;
27223;SDS011;14965;50.660;13.226;2023-09-12T14:12:25;14.98;;;9.38;;
27223;SDS011;14965;50.660;13.226;2023-09-12T14:14:51;15.85;;;8.82;;
27223;SDS011;14965;50.660;13.226;2023-09-12T14:17:17;19.10;;;10.18;;
27223;SDS011;14965;50.660;13.226;2023-09-12T14:19:43;17.25;;;8.63;;
27223;SDS011;14965;50.660;13.226;2023-09-12T14:22:10;18.42;;;9.45;;
27223;SDS011;14965;50.660;13.226;2023-09-12T14:24:36;17.77;;;9.85;;
27223;SDS011;14965;50.660;13.226;2023-09-12T14:27:03;16.20;;;9.43;;
27223;SDS011;14965;50.660;13.226;2023-09-12T14:29:30;16.00;;;9.55;;